sensor_id;sensor_type;location;lat;lon;timestamp;P1;durP1;ratioP1;P2;durP2;ratioP2
59756;SDS011;45631;51.962;5.974;2023-07-22T00:00:03;9.80;;;6.07;;
59756;SDS011;45631;51.962;5.974;2023-07-22T00:02:35;9.80;;;5.67;;
59756;SDS011;45631;51.962;5.974;2023-07-22T00:05:06;10.98;;;6.15;;
59756;SDS011;45631;51.962;5.974;2023-07-22T00:07:36;9.38;;;5.43;;
59756;SDS011;45631;51.962;5.974;2023-07-22T00:10:07;12.25;;;5.57;;
59756;SDS011;45631;51.962;5.974;2023-07-22T00:12:35;10.90;;;6.10;;
59756;SDS011;45631;51.962;5.974;2023-07-22T00:15:07;9.40;;;5.90;;
59756;SDS011;45631;51.962;5.974;2023-07-22T00:17:38;10.57;;;6.20;;
59756;SDS011;45631;51.962;5.974;2023-07-22T00:20:10;9.60;;;6.03;;
59756;SDS011;45631;51.962;5.974;2023-07-22T00:22:38;10.65;;;6.35;;
59756;SDS011;45631;51.962;5.974;2023-07-22T00:25:07;12.10;;;6.50;;
59756;SDS011;45631;51.962;5.974;2023-07-22T00:27:37;10.85;;;6.07;;
59756;SDS011;45631;51.962;5.974;2023-07-22T00:30:06;10.07;;;5.70;;
59756;SDS011;45631;51.962;5.974;2023-07-22T00:32:35;12.35;;;7.15;;
59756;SDS011;45631;51.962;5.974;2023-07-22T00:35:07;10.75;;;6.15;;
59756;SDS011;45631;51.962;5.974;2023-07-22T00:37:37;11.98;;;6.82;;
59756;SDS011;45631;51.962;5.974;2023-07-22T00:40:06;9.85;;;6.47;;
59756;SDS011;45631;51.962;5.974;2023-07-22T00:45:07;11.32;;;6.78;;
59756;SDS011;45631;51.962;5.974;2023-07-22T00:47:35;14.48;;;6.85;;
59756;SDS011;45631;51.962;5.974;2023-07-22T00:50:05;13.35;;;7.70;;
59756;SDS011;45631;51.962;5.974;2023-07-22T00:52:35;13.82;;;8.10;;
59756;SDS011;45631;51.962;5.974;2023-07-22T00:55:05;12.85;;;7.47;;
59756;SDS011;45631;51.962;5.974;2023-07-22T00:57:37;13.50;;;8.10;;
59756;SDS011;45631;51.962;5.974;2023-07-22T01:00:06;13.45;;;8.00;;
59756;SDS011;45631;51.962;5.974;2023-07-22T01:02:38;13.18;;;7.30;;
59756;SDS011;45631;51.962;5.974;2023-07-22T01:05:09;14.25;;;8.00;;
59756;SDS011;45631;51.962;5.974;2023-07-22T01:07:38;12.82;;;7.82;;
59756;SDS011;45631;51.962;5.974;2023-07-22T01:10:08;15.10;;;7.95;;
59756;SDS011;45631;51.962;5.974;2023-07-22T01:12:36;12.50;;;7.93;;
59756;SDS011;45631;51.962;5.974;2023-07-22T01:15:05;18.63;;;8.20;;
59756;SDS011;45631;51.962;5.974;2023-07-22T01:17:35;15.35;;;8.57;;
59756;SDS011;45631;51.962;5.974;2023-07-22T01:20:05;13.40;;;7.72;;
59756;SDS011;45631;51.962;5.974;2023-07-22T01:22:36;12.63;;;8.15;;
59756;SDS011;45631;51.962;5.974;2023-07-22T01:25:07;13.70;;;8.88;;
59756;SDS011;45631;51.962;5.974;2023-07-22T01:27:36;15.32;;;9.13;;
59756;SDS011;45631;51.962;5.974;2023-07-22T01:30:04;13.30;;;8.10;;
59756;SDS011;45631;51.962;5.974;2023-07-22T01:32:36;14.48;;;9.30;;
59756;SDS011;45631;51.962;5.974;2023-07-22T01:35:08;14.48;;;8.70;;
59756;SDS011;45631;51.962;5.974;2023-07-22T01:37:36;14.77;;;9.10;;
59756;SDS011;45631;51.962;5.974;2023-07-22T01:40:05;15.48;;;9.88;;
59756;SDS011;45631;51.962;5.974;2023-07-22T01:42:38;14.77;;;9.40;;
59756;SDS011;45631;51.962;5.974;2023-07-22T01:45:07;15.52;;;9.82;;
59756;SDS011;45631;51.962;5.974;2023-07-22T01:47:37;18.27;;;10.50;;
59756;SDS011;45631;51.962;5.974;2023-07-22T01:50:06;20.05;;;11.85;;
59756;SDS011;45631;51.962;5.974;2023-07-22T01:52:35;16.83;;;10.77;;
59756;SDS011;45631;51.962;5.974;2023-07-22T01:55:03;16.95;;;10.75;;
59756;SDS011;45631;51.962;5.974;2023-07-22T01:57:34;17.52;;;11.13;;
59756;SDS011;45631;51.962;5.974;2023-07-22T02:00:05;18.73;;;12.82;;
59756;SDS011;45631;51.962;5.974;2023-07-22T02:02:34;20.42;;;11.98;;
59756;SDS011;45631;51.962;5.974;2023-07-22T02:05:02;19.85;;;12.75;;
59756;SDS011;45631;51.962;5.974;2023-07-22T02:07:34;19.58;;;12.25;;
59756;SDS011;45631;51.962;5.974;2023-07-22T02:10:03;17.90;;;11.68;;
59756;SDS011;45631;51.962;5.974;2023-07-22T02:12:33;19.45;;;12.05;;
59756;SDS011;45631;51.962;5.974;2023-07-22T02:15:02;19.90;;;11.75;;
59756;SDS011;45631;51.962;5.974;2023-07-22T02:17:30;17.38;;;11.05;;
59756;SDS011;45631;51.962;5.974;2023-07-22T02:20:00;18.70;;;11.98;;
59756;SDS011;45631;51.962;5.974;2023-07-22T02:22:31;19.92;;;11.75;;
59756;SDS011;45631;51.962;5.974;2023-07-22T02:24:59;18.05;;;12.27;;
59756;SDS011;45631;51.962;5.974;2023-07-22T02:27:27;19.48;;;12.60;;
59756;SDS011;45631;51.962;5.974;2023-07-22T02:29:57;18.52;;;11.73;;
59756;SDS011;45631;51.962;5.974;2023-07-22T02:32:25;19.73;;;12.27;;
59756;SDS011;45631;51.962;5.974;2023-07-22T02:34:53;20.50;;;12.80;;
59756;SDS011;45631;51.962;5.974;2023-07-22T02:37:24;19.92;;;12.35;;
59756;SDS011;45631;51.962;5.974;2023-07-22T02:39:54;22.60;;;14.10;;
59756;SDS011;45631;51.962;5.974;2023-07-22T02:42:22;19.65;;;12.60;;
59756;SDS011;45631;51.962;5.974;2023-07-22T02:44:50;25.42;;;12.75;;
59756;SDS011;45631;51.962;5.974;2023-07-22T02:47:20;20.80;;;13.55;;
59756;SDS011;45631;51.962;5.974;2023-07-22T02:49:49;21.60;;;13.45;;
59756;SDS011;45631;51.962;5.974;2023-07-22T02:52:17;18.17;;;12.75;;
59756;SDS011;45631;51.962;5.974;2023-07-22T02:54:53;21.42;;;13.60;;
59756;SDS011;45631;51.962;5.974;2023-07-22T02:57:32;20.58;;;12.98;;
59756;SDS011;45631;51.962;5.974;2023-07-22T03:00:01;20.13;;;13.00;;
59756;SDS011;45631;51.962;5.974;2023-07-22T03:02:35;20.05;;;12.38;;
59756;SDS011;45631;51.962;5.974;2023-07-22T03:05:03;20.58;;;13.02;;
59756;SDS011;45631;51.962;5.974;2023-07-22T03:07:34;18.40;;;11.98;;
59756;SDS011;45631;51.962;5.974;2023-07-22T03:10:03;19.00;;;12.57;;
59756;SDS011;45631;51.962;5.974;2023-07-22T03:12:32;20.67;;;12.90;;
59756;SDS011;45631;51.962;5.974;2023-07-22T03:15:01;19.58;;;12.73;;
59756;SDS011;45631;51.962;5.974;2023-07-22T03:17:30;21.00;;;12.68;;
59756;SDS011;45631;51.962;5.974;2023-07-22T03:20:00;20.70;;;12.38;;
59756;SDS011;45631;51.962;5.974;2023-07-22T03:22:28;20.08;;;12.10;;
59756;SDS011;45631;51.962;5.974;2023-07-22T03:24:57;22.67;;;12.57;;
59756;SDS011;45631;51.962;5.974;2023-07-22T03:27:28;20.42;;;12.90;;
59756;SDS011;45631;51.962;5.974;2023-07-22T03:29:56;21.23;;;13.23;;
59756;SDS011;45631;51.962;5.974;2023-07-22T03:32:25;22.33;;;13.63;;
59756;SDS011;45631;51.962;5.974;2023-07-22T03:34:53;19.95;;;13.32;;
59756;SDS011;45631;51.962;5.974;2023-07-22T03:37:22;20.70;;;13.00;;
59756;SDS011;45631;51.962;5.974;2023-07-22T03:39:50;19.52;;;12.73;;
59756;SDS011;45631;51.962;5.974;2023-07-22T03:42:18;23.33;;;13.57;;
59756;SDS011;45631;51.962;5.974;2023-07-22T03:44:47;21.83;;;12.80;;
59756;SDS011;45631;51.962;5.974;2023-07-22T03:47:15;21.20;;;13.73;;
59756;SDS011;45631;51.962;5.974;2023-07-22T03:49:44;20.85;;;13.70;;
59756;SDS011;45631;51.962;5.974;2023-07-22T03:52:12;22.45;;;13.82;;
59756;SDS011;45631;51.962;5.974;2023-07-22T03:54:42;20.67;;;13.30;;
59756;SDS011;45631;51.962;5.974;2023-07-22T03:57:10;20.42;;;12.85;;
59756;SDS011;45631;51.962;5.974;2023-07-22T03:59:39;22.75;;;13.93;;
59756;SDS011;45631;51.962;5.974;2023-07-22T04:02:07;20.67;;;13.80;;
59756;SDS011;45631;51.962;5.974;2023-07-22T04:04:35;22.95;;;13.57;;
59756;SDS011;45631;51.962;5.974;2023-07-22T04:07:03;23.13;;;13.38;;
59756;SDS011;45631;51.962;5.974;2023-07-22T04:09:34;23.27;;;14.18;;
59756;SDS011;45631;51.962;5.974;2023-07-22T04:12:04;23.77;;;14.20;;
59756;SDS011;45631;51.962;5.974;2023-07-22T04:14:33;21.73;;;13.02;;
59756;SDS011;45631;51.962;5.974;2023-07-22T04:17:01;22.60;;;13.85;;
59756;SDS011;45631;51.962;5.974;2023-07-22T04:19:33;22.38;;;13.88;;
59756;SDS011;45631;51.962;5.974;2023-07-22T04:22:01;23.88;;;13.90;;
59756;SDS011;45631;51.962;5.974;2023-07-22T04:24:33;23.02;;;13.25;;
59756;SDS011;45631;51.962;5.974;2023-07-22T04:27:01;21.42;;;14.07;;
59756;SDS011;45631;51.962;5.974;2023-07-22T04:29:31;22.05;;;13.77;;
59756;SDS011;45631;51.962;5.974;2023-07-22T04:31:59;23.50;;;14.15;;
59756;SDS011;45631;51.962;5.974;2023-07-22T04:34:28;22.30;;;13.35;;
59756;SDS011;45631;51.962;5.974;2023-07-22T04:36:57;23.52;;;14.05;;
59756;SDS011;45631;51.962;5.974;2023-07-22T04:39:25;21.92;;;13.10;;
59756;SDS011;45631;51.962;5.974;2023-07-22T04:41:54;23.55;;;14.05;;
59756;SDS011;45631;51.962;5.974;2023-07-22T04:44:22;26.20;;;15.45;;
59756;SDS011;45631;51.962;5.974;2023-07-22T04:46:53;23.90;;;14.23;;
59756;SDS011;45631;51.962;5.974;2023-07-22T04:49:21;24.35;;;15.82;;
59756;SDS011;45631;51.962;5.974;2023-07-22T04:51:49;25.70;;;15.43;;
59756;SDS011;45631;51.962;5.974;2023-07-22T04:54:17;23.20;;;14.38;;
59756;SDS011;45631;51.962;5.974;2023-07-22T04:56:46;27.50;;;15.55;;
59756;SDS011;45631;51.962;5.974;2023-07-22T04:59:14;27.10;;;15.73;;
59756;SDS011;45631;51.962;5.974;2023-07-22T05:01:42;28.02;;;15.63;;
59756;SDS011;45631;51.962;5.974;2023-07-22T05:04:12;24.98;;;15.07;;
59756;SDS011;45631;51.962;5.974;2023-07-22T05:06:40;27.17;;;16.00;;
59756;SDS011;45631;51.962;5.974;2023-07-22T05:09:08;30.05;;;16.08;;
59756;SDS011;45631;51.962;5.974;2023-07-22T05:11:39;25.77;;;15.73;;
59756;SDS011;45631;51.962;5.974;2023-07-22T05:14:08;25.42;;;16.02;;
59756;SDS011;45631;51.962;5.974;2023-07-22T05:16:36;29.10;;;15.68;;
59756;SDS011;45631;51.962;5.974;2023-07-22T05:19:04;27.35;;;16.15;;
59756;SDS011;45631;51.962;5.974;2023-07-22T05:21:36;29.30;;;16.15;;
59756;SDS011;45631;51.962;5.974;2023-07-22T05:24:04;27.42;;;15.93;;
59756;SDS011;45631;51.962;5.974;2023-07-22T05:26:33;31.42;;;16.38;;
59756;SDS011;45631;51.962;5.974;2023-07-22T05:29:01;26.10;;;15.85;;
59756;SDS011;45631;51.962;5.974;2023-07-22T05:31:29;29.35;;;16.95;;
59756;SDS011;45631;51.962;5.974;2023-07-22T05:33:57;27.92;;;17.15;;
59756;SDS011;45631;51.962;5.974;2023-07-22T05:36:25;28.40;;;17.55;;
59756;SDS011;45631;51.962;5.974;2023-07-22T05:38:55;29.63;;;17.83;;
59756;SDS011;45631;51.962;5.974;2023-07-22T05:41:25;29.38;;;18.00;;
59756;SDS011;45631;51.962;5.974;2023-07-22T05:43:54;29.83;;;17.45;;
59756;SDS011;45631;51.962;5.974;2023-07-22T05:46:22;27.45;;;17.85;;
59756;SDS011;45631;51.962;5.974;2023-07-22T05:48:50;29.05;;;17.98;;
59756;SDS011;45631;51.962;5.974;2023-07-22T05:51:18;32.92;;;17.80;;
59756;SDS011;45631;51.962;5.974;2023-07-22T05:53:46;31.77;;;17.33;;
59756;SDS011;45631;51.962;5.974;2023-07-22T05:56:16;31.45;;;17.55;;
59756;SDS011;45631;51.962;5.974;2023-07-22T05:58:44;28.63;;;16.48;;
59756;SDS011;45631;51.962;5.974;2023-07-22T06:01:12;29.50;;;17.20;;
59756;SDS011;45631;51.962;5.974;2023-07-22T06:03:41;28.23;;;16.95;;
59756;SDS011;45631;51.962;5.974;2023-07-22T06:06:10;26.45;;;16.45;;
59756;SDS011;45631;51.962;5.974;2023-07-22T06:08:38;28.55;;;16.63;;
59756;SDS011;45631;51.962;5.974;2023-07-22T06:11:06;28.08;;;17.40;;
59756;SDS011;45631;51.962;5.974;2023-07-22T06:13:36;25.77;;;16.00;;
59756;SDS011;45631;51.962;5.974;2023-07-22T06:16:04;25.90;;;16.73;;
59756;SDS011;45631;51.962;5.974;2023-07-22T06:18:32;30.27;;;18.90;;
59756;SDS011;45631;51.962;5.974;2023-07-22T06:21:02;28.02;;;17.02;;
59756;SDS011;45631;51.962;5.974;2023-07-22T06:23:31;28.92;;;16.20;;
59756;SDS011;45631;51.962;5.974;2023-07-22T06:25:59;29.52;;;16.42;;
59756;SDS011;45631;51.962;5.974;2023-07-22T06:28:27;26.30;;;16.55;;
59756;SDS011;45631;51.962;5.974;2023-07-22T06:30:57;27.10;;;16.60;;
59756;SDS011;45631;51.962;5.974;2023-07-22T06:33:25;31.13;;;15.95;;
59756;SDS011;45631;51.962;5.974;2023-07-22T06:35:53;26.05;;;15.98;;
59756;SDS011;45631;51.962;5.974;2023-07-22T06:38:23;22.75;;;14.73;;
59756;SDS011;45631;51.962;5.974;2023-07-22T06:40:52;24.80;;;15.10;;
59756;SDS011;45631;51.962;5.974;2023-07-22T06:43:20;24.52;;;15.38;;
59756;SDS011;45631;51.962;5.974;2023-07-22T06:45:48;26.25;;;15.85;;
59756;SDS011;45631;51.962;5.974;2023-07-22T06:48:18;25.95;;;14.93;;
59756;SDS011;45631;51.962;5.974;2023-07-22T06:50:47;24.95;;;16.25;;
59756;SDS011;45631;51.962;5.974;2023-07-22T06:53:15;26.40;;;15.57;;
59756;SDS011;45631;51.962;5.974;2023-07-22T06:55:50;25.00;;;15.45;;
59756;SDS011;45631;51.962;5.974;2023-07-22T06:58:19;23.55;;;15.60;;
59756;SDS011;45631;51.962;5.974;2023-07-22T07:00:52;25.20;;;15.43;;
59756;SDS011;45631;51.962;5.974;2023-07-22T07:03:22;23.50;;;14.43;;
59756;SDS011;45631;51.962;5.974;2023-07-22T07:05:54;24.25;;;14.23;;
59756;SDS011;45631;51.962;5.974;2023-07-22T07:08:23;24.25;;;14.43;;
59756;SDS011;45631;51.962;5.974;2023-07-22T07:10:51;21.15;;;13.70;;
59756;SDS011;45631;51.962;5.974;2023-07-22T07:13:21;24.90;;;15.25;;
59756;SDS011;45631;51.962;5.974;2023-07-22T07:15:50;23.55;;;15.68;;
59756;SDS011;45631;51.962;5.974;2023-07-22T07:18:18;22.23;;;14.60;;
59756;SDS011;45631;51.962;5.974;2023-07-22T07:20:48;23.65;;;13.75;;
59756;SDS011;45631;51.962;5.974;2023-07-22T07:23:20;21.27;;;13.70;;
59756;SDS011;45631;51.962;5.974;2023-07-22T07:25:49;22.02;;;13.40;;
59756;SDS011;45631;51.962;5.974;2023-07-22T07:28:17;20.73;;;13.23;;
59756;SDS011;45631;51.962;5.974;2023-07-22T07:30:45;20.73;;;12.27;;
59756;SDS011;45631;51.962;5.974;2023-07-22T07:33:13;24.02;;;13.63;;
59756;SDS011;45631;51.962;5.974;2023-07-22T07:35:45;22.05;;;13.02;;
59756;SDS011;45631;51.962;5.974;2023-07-22T07:38:15;21.73;;;13.13;;
59756;SDS011;45631;51.962;5.974;2023-07-22T07:40:44;18.75;;;13.20;;
59756;SDS011;45631;51.962;5.974;2023-07-22T07:43:12;22.15;;;12.27;;
59756;SDS011;45631;51.962;5.974;2023-07-22T07:45:40;17.13;;;11.48;;
59756;SDS011;45631;51.962;5.974;2023-07-22T07:48:08;17.73;;;11.80;;
59756;SDS011;45631;51.962;5.974;2023-07-22T07:50:37;19.92;;;11.18;;
59756;SDS011;45631;51.962;5.974;2023-07-22T07:53:05;17.65;;;11.02;;
59756;SDS011;45631;51.962;5.974;2023-07-22T07:55:35;15.68;;;10.63;;
59756;SDS011;45631;51.962;5.974;2023-07-22T07:58:03;17.05;;;10.75;;
59756;SDS011;45631;51.962;5.974;2023-07-22T08:00:31;18.48;;;11.57;;
59756;SDS011;45631;51.962;5.974;2023-07-22T08:03:00;19.42;;;11.45;;
59756;SDS011;45631;51.962;5.974;2023-07-22T08:05:31;16.00;;;9.95;;
59756;SDS011;45631;51.962;5.974;2023-07-22T08:07:59;18.58;;;10.32;;
59756;SDS011;45631;51.962;5.974;2023-07-22T08:10:27;17.33;;;9.88;;
59756;SDS011;45631;51.962;5.974;2023-07-22T08:12:56;15.02;;;9.32;;
59756;SDS011;45631;51.962;5.974;2023-07-22T08:15:27;13.90;;;8.77;;
59756;SDS011;45631;51.962;5.974;2023-07-22T08:17:55;16.20;;;9.70;;
59756;SDS011;45631;51.962;5.974;2023-07-22T08:20:23;13.48;;;8.95;;
59756;SDS011;45631;51.962;5.974;2023-07-22T08:22:52;16.98;;;8.77;;
59756;SDS011;45631;51.962;5.974;2023-07-22T08:25:20;12.45;;;8.45;;
59756;SDS011;45631;51.962;5.974;2023-07-22T08:27:48;18.20;;;8.85;;
59756;SDS011;45631;51.962;5.974;2023-07-22T08:30:17;14.45;;;8.35;;
59756;SDS011;45631;51.962;5.974;2023-07-22T08:32:46;15.13;;;8.13;;
59756;SDS011;45631;51.962;5.974;2023-07-22T08:35:14;16.63;;;8.57;;
59756;SDS011;45631;51.962;5.974;2023-07-22T08:37:44;13.80;;;7.85;;
59756;SDS011;45631;51.962;5.974;2023-07-22T08:40:13;16.15;;;8.57;;
59756;SDS011;45631;51.962;5.974;2023-07-22T08:42:41;15.18;;;8.60;;
59756;SDS011;45631;51.962;5.974;2023-07-22T08:45:10;13.13;;;8.13;;
59756;SDS011;45631;51.962;5.974;2023-07-22T08:47:45;14.48;;;9.18;;
59756;SDS011;45631;51.962;5.974;2023-07-22T08:50:14;14.32;;;8.50;;
59756;SDS011;45631;51.962;5.974;2023-07-22T08:52:48;14.75;;;8.30;;
59756;SDS011;45631;51.962;5.974;2023-07-22T08:55:16;14.88;;;9.18;;
59756;SDS011;45631;51.962;5.974;2023-07-22T08:57:47;16.33;;;9.73;;
59756;SDS011;45631;51.962;5.974;2023-07-22T09:00:17;16.02;;;8.80;;
59756;SDS011;45631;51.962;5.974;2023-07-22T09:02:47;23.52;;;10.95;;
59756;SDS011;45631;51.962;5.974;2023-07-22T09:05:19;37.13;;;15.73;;
59756;SDS011;45631;51.962;5.974;2023-07-22T09:07:47;18.08;;;10.18;;
59756;SDS011;45631;51.962;5.974;2023-07-22T09:10:16;14.98;;;8.77;;
59756;SDS011;45631;51.962;5.974;2023-07-22T09:12:45;14.32;;;7.90;;
59756;SDS011;45631;51.962;5.974;2023-07-22T09:15:14;13.32;;;8.00;;
59756;SDS011;45631;51.962;5.974;2023-07-22T09:17:43;13.38;;;8.15;;
59756;SDS011;45631;51.962;5.974;2023-07-22T09:20:14;16.25;;;8.30;;
59756;SDS011;45631;51.962;5.974;2023-07-22T09:22:43;13.65;;;7.70;;
59756;SDS011;45631;51.962;5.974;2023-07-22T09:25:16;13.30;;;8.05;;
59756;SDS011;45631;51.962;5.974;2023-07-22T09:27:46;12.65;;;7.55;;
59756;SDS011;45631;51.962;5.974;2023-07-22T09:30:22;13.93;;;7.50;;
59756;SDS011;45631;51.962;5.974;2023-07-22T09:32:52;13.05;;;5.97;;
59756;SDS011;45631;51.962;5.974;2023-07-22T09:35:24;10.88;;;6.20;;
59756;SDS011;45631;51.962;5.974;2023-07-22T09:37:54;11.48;;;6.57;;
59756;SDS011;45631;51.962;5.974;2023-07-22T09:40:22;12.68;;;6.18;;
59756;SDS011;45631;51.962;5.974;2023-07-22T09:42:52;10.95;;;6.40;;
59756;SDS011;45631;51.962;5.974;2023-07-22T09:45:21;10.15;;;5.88;;
59756;SDS011;45631;51.962;5.974;2023-07-22T09:47:52;10.07;;;5.70;;
59756;SDS011;45631;51.962;5.974;2023-07-22T09:50:23;13.07;;;5.72;;
59756;SDS011;45631;51.962;5.974;2023-07-22T09:52:53;9.45;;;4.78;;
59756;SDS011;45631;51.962;5.974;2023-07-22T09:55:25;9.55;;;5.25;;
59756;SDS011;45631;51.962;5.974;2023-07-22T09:57:58;8.45;;;4.40;;
59756;SDS011;45631;51.962;5.974;2023-07-22T10:00:28;10.68;;;4.70;;
59756;SDS011;45631;51.962;5.974;2023-07-22T10:02:58;10.20;;;4.70;;
59756;SDS011;45631;51.962;5.974;2023-07-22T10:05:29;9.10;;;4.28;;
59756;SDS011;45631;51.962;5.974;2023-07-22T10:08:01;8.60;;;4.25;;
59756;SDS011;45631;51.962;5.974;2023-07-22T10:10:31;8.05;;;4.10;;
59756;SDS011;45631;51.962;5.974;2023-07-22T10:13:00;8.48;;;4.18;;
59756;SDS011;45631;51.962;5.974;2023-07-22T10:15:30;7.50;;;3.85;;
59756;SDS011;45631;51.962;5.974;2023-07-22T10:18:00;7.72;;;3.88;;
59756;SDS011;45631;51.962;5.974;2023-07-22T10:20:32;8.25;;;3.75;;
59756;SDS011;45631;51.962;5.974;2023-07-22T10:23:03;8.68;;;4.70;;
59756;SDS011;45631;51.962;5.974;2023-07-22T10:25:32;10.07;;;4.30;;
59756;SDS011;45631;51.962;5.974;2023-07-22T10:28:01;9.43;;;4.85;;
59756;SDS011;45631;51.962;5.974;2023-07-22T10:30:29;9.50;;;4.88;;
59756;SDS011;45631;51.962;5.974;2023-07-22T10:32:58;9.75;;;4.93;;
59756;SDS011;45631;51.962;5.974;2023-07-22T10:35:40;10.68;;;4.65;;
59756;SDS011;45631;51.962;5.974;2023-07-22T10:38:11;9.07;;;4.70;;
59756;SDS011;45631;51.962;5.974;2023-07-22T10:40:44;8.98;;;4.88;;
59756;SDS011;45631;51.962;5.974;2023-07-22T10:43:14;9.15;;;4.57;;
59756;SDS011;45631;51.962;5.974;2023-07-22T10:45:48;8.98;;;3.95;;
59756;SDS011;45631;51.962;5.974;2023-07-22T10:48:18;8.80;;;4.28;;
59756;SDS011;45631;51.962;5.974;2023-07-22T10:50:49;9.32;;;4.25;;
59756;SDS011;45631;51.962;5.974;2023-07-22T10:53:27;9.23;;;4.10;;
59756;SDS011;45631;51.962;5.974;2023-07-22T10:56:03;10.25;;;4.22;;
59756;SDS011;45631;51.962;5.974;2023-07-22T10:58:55;7.63;;;3.63;;
59756;SDS011;45631;51.962;5.974;2023-07-22T11:01:31;9.32;;;3.90;;
59756;SDS011;45631;51.962;5.974;2023-07-22T11:07:10;7.40;;;3.70;;
59756;SDS011;45631;51.962;5.974;2023-07-22T11:09:38;7.25;;;3.22;;
59756;SDS011;45631;51.962;5.974;2023-07-22T11:12:09;10.93;;;3.88;;
59756;SDS011;45631;51.962;5.974;2023-07-22T11:14:46;7.88;;;3.45;;
59756;SDS011;45631;51.962;5.974;2023-07-22T11:17:16;6.65;;;3.40;;
59756;SDS011;45631;51.962;5.974;2023-07-22T11:19:45;7.80;;;3.25;;
59756;SDS011;45631;51.962;5.974;2023-07-22T11:22:17;9.23;;;3.20;;
59756;SDS011;45631;51.962;5.974;2023-07-22T11:24:47;9.27;;;3.87;;
59756;SDS011;45631;51.962;5.974;2023-07-22T11:27:15;6.72;;;3.13;;
59756;SDS011;45631;51.962;5.974;2023-07-22T11:29:44;6.50;;;3.20;;
59756;SDS011;45631;51.962;5.974;2023-07-22T11:32:15;8.15;;;3.40;;
59756;SDS011;45631;51.962;5.974;2023-07-22T11:34:44;9.87;;;3.20;;
59756;SDS011;45631;51.962;5.974;2023-07-22T11:37:12;11.45;;;3.75;;
59756;SDS011;45631;51.962;5.974;2023-07-22T11:39:43;7.35;;;3.70;;
59756;SDS011;45631;51.962;5.974;2023-07-22T11:42:11;8.48;;;3.33;;
59756;SDS011;45631;51.962;5.974;2023-07-22T11:44:39;10.68;;;3.75;;
59756;SDS011;45631;51.962;5.974;2023-07-22T11:47:07;7.10;;;3.33;;
59756;SDS011;45631;51.962;5.974;2023-07-22T11:49:36;10.27;;;3.20;;
59756;SDS011;45631;51.962;5.974;2023-07-22T11:52:06;8.07;;;3.10;;
59756;SDS011;45631;51.962;5.974;2023-07-22T11:54:35;10.23;;;3.80;;
59756;SDS011;45631;51.962;5.974;2023-07-22T11:57:11;7.18;;;3.10;;
59756;SDS011;45631;51.962;5.974;2023-07-22T11:59:43;10.23;;;3.20;;
59756;SDS011;45631;51.962;5.974;2023-07-22T12:02:13;14.20;;;3.72;;
59756;SDS011;45631;51.962;5.974;2023-07-22T12:04:41;6.80;;;2.90;;
59756;SDS011;45631;51.962;5.974;2023-07-22T12:07:21;8.43;;;2.78;;
59756;SDS011;45631;51.962;5.974;2023-07-22T12:09:51;5.13;;;2.47;;
59756;SDS011;45631;51.962;5.974;2023-07-22T12:12:21;7.22;;;2.55;;
59756;SDS011;45631;51.962;5.974;2023-07-22T12:15:00;9.10;;;2.88;;
59756;SDS011;45631;51.962;5.974;2023-07-22T12:17:43;7.05;;;2.60;;
59756;SDS011;45631;51.962;5.974;2023-07-22T12:20:12;5.97;;;2.85;;
59756;SDS011;45631;51.962;5.974;2023-07-22T12:22:41;6.00;;;2.33;;
59756;SDS011;45631;51.962;5.974;2023-07-22T12:25:09;7.97;;;2.70;;
59756;SDS011;45631;51.962;5.974;2023-07-22T12:27:39;8.77;;;2.80;;
59756;SDS011;45631;51.962;5.974;2023-07-22T12:30:08;6.78;;;2.50;;
59756;SDS011;45631;51.962;5.974;2023-07-22T12:32:36;4.47;;;2.15;;
59756;SDS011;45631;51.962;5.974;2023-07-22T12:35:05;5.07;;;2.15;;
59756;SDS011;45631;51.962;5.974;2023-07-22T12:37:34;5.95;;;2.30;;
59756;SDS011;45631;51.962;5.974;2023-07-22T12:40:03;5.25;;;2.15;;
59756;SDS011;45631;51.962;5.974;2023-07-22T12:42:35;5.63;;;2.00;;
59756;SDS011;45631;51.962;5.974;2023-07-22T12:45:05;4.93;;;2.13;;
59756;SDS011;45631;51.962;5.974;2023-07-22T12:47:34;4.82;;;2.13;;
59756;SDS011;45631;51.962;5.974;2023-07-22T12:50:04;6.60;;;2.00;;
59756;SDS011;45631;51.962;5.974;2023-07-22T12:52:34;5.45;;;2.25;;
59756;SDS011;45631;51.962;5.974;2023-07-22T12:55:03;4.50;;;1.90;;
59756;SDS011;45631;51.962;5.974;2023-07-22T12:57:31;5.55;;;2.10;;
59756;SDS011;45631;51.962;5.974;2023-07-22T13:00:00;6.25;;;2.45;;
59756;SDS011;45631;51.962;5.974;2023-07-22T13:02:32;6.10;;;2.30;;
59756;SDS011;45631;51.962;5.974;2023-07-22T13:05:00;5.80;;;2.72;;
59756;SDS011;45631;51.962;5.974;2023-07-22T13:07:32;4.70;;;2.22;;
59756;SDS011;45631;51.962;5.974;2023-07-22T13:10:00;5.75;;;2.53;;
59756;SDS011;45631;51.962;5.974;2023-07-22T13:12:34;6.20;;;2.65;;
59756;SDS011;45631;51.962;5.974;2023-07-22T13:15:02;8.20;;;2.45;;
59756;SDS011;45631;51.962;5.974;2023-07-22T13:17:32;6.57;;;2.80;;
59756;SDS011;45631;51.962;5.974;2023-07-22T13:20:01;8.02;;;3.08;;
59756;SDS011;45631;51.962;5.974;2023-07-22T13:22:33;6.25;;;3.00;;
59756;SDS011;45631;51.962;5.974;2023-07-22T13:25:01;7.22;;;3.45;;
59756;SDS011;45631;51.962;5.974;2023-07-22T13:27:33;6.22;;;3.10;;
59756;SDS011;45631;51.962;5.974;2023-07-22T13:30:01;7.32;;;3.50;;
59756;SDS011;45631;51.962;5.974;2023-07-22T13:32:29;8.10;;;3.28;;
59756;SDS011;45631;51.962;5.974;2023-07-22T13:34:58;6.90;;;3.00;;
59756;SDS011;45631;51.962;5.974;2023-07-22T13:37:30;7.40;;;2.92;;
59756;SDS011;45631;51.962;5.974;2023-07-22T13:39:58;7.05;;;3.13;;
59756;SDS011;45631;51.962;5.974;2023-07-22T13:42:26;7.53;;;2.80;;
59756;SDS011;45631;51.962;5.974;2023-07-22T13:44:54;7.75;;;2.90;;
59756;SDS011;45631;51.962;5.974;2023-07-22T13:47:22;8.95;;;2.88;;
59756;SDS011;45631;51.962;5.974;2023-07-22T13:49:51;7.97;;;3.17;;
59756;SDS011;45631;51.962;5.974;2023-07-22T13:52:20;9.30;;;3.08;;
59756;SDS011;45631;51.962;5.974;2023-07-22T13:54:48;5.95;;;2.65;;
59756;SDS011;45631;51.962;5.974;2023-07-22T13:57:16;6.40;;;2.80;;
59756;SDS011;45631;51.962;5.974;2023-07-22T13:59:44;8.75;;;2.83;;
59756;SDS011;45631;51.962;5.974;2023-07-22T14:02:13;8.15;;;3.25;;
59756;SDS011;45631;51.962;5.974;2023-07-22T14:04:41;7.25;;;2.63;;
59756;SDS011;45631;51.962;5.974;2023-07-22T14:07:09;5.43;;;2.60;;
59756;SDS011;45631;51.962;5.974;2023-07-22T14:09:38;7.03;;;3.05;;
59756;SDS011;45631;51.962;5.974;2023-07-22T14:12:07;5.88;;;2.88;;
59756;SDS011;45631;51.962;5.974;2023-07-22T14:14:36;6.65;;;2.80;;
59756;SDS011;45631;51.962;5.974;2023-07-22T14:17:04;7.28;;;3.20;;
59756;SDS011;45631;51.962;5.974;2023-07-22T14:19:34;7.15;;;3.10;;
59756;SDS011;45631;51.962;5.974;2023-07-22T14:22:02;8.48;;;3.47;;
59756;SDS011;45631;51.962;5.974;2023-07-22T14:24:30;8.15;;;3.13;;
59756;SDS011;45631;51.962;5.974;2023-07-22T14:27:02;6.93;;;3.78;;
59756;SDS011;45631;51.962;5.974;2023-07-22T14:29:32;7.03;;;3.10;;
59756;SDS011;45631;51.962;5.974;2023-07-22T14:32:01;6.82;;;3.45;;
59756;SDS011;45631;51.962;5.974;2023-07-22T14:34:29;6.93;;;2.80;;
59756;SDS011;45631;51.962;5.974;2023-07-22T14:36:57;8.20;;;3.42;;
59756;SDS011;45631;51.962;5.974;2023-07-22T14:39:25;6.78;;;2.97;;
59756;SDS011;45631;51.962;5.974;2023-07-22T14:41:54;8.70;;;3.08;;
59756;SDS011;45631;51.962;5.974;2023-07-22T14:44:23;8.40;;;3.50;;
59756;SDS011;45631;51.962;5.974;2023-07-22T14:46:52;8.00;;;3.33;;
59756;SDS011;45631;51.962;5.974;2023-07-22T14:49:20;7.43;;;3.65;;
59756;SDS011;45631;51.962;5.974;2023-07-22T14:51:48;8.52;;;4.20;;